createdAt,value
2023-05-01T00:00:30.542Z,1005.68
2023-05-01T00:01:30.603Z,1005.67
2023-05-01T00:02:30.539Z,1005.65
2023-05-01T00:03:30.662Z,1005.66
2023-05-01T00:04:30.485Z,1005.66
2023-05-01T00:05:30.456Z,1005.65
2023-05-01T00:06:30.490Z,1005.65
2023-05-01T00:07:30.417Z,1005.64
2023-05-01T00:08:30.425Z,1005.64
2023-05-01T00:09:30.416Z,1005.63
2023-05-01T00:10:30.410Z,1005.62
2023-05-01T00:11:30.382Z,1005.60
2023-05-01T00:12:30.385Z,1005.58
2023-05-01T00:13:30.357Z,1005.55
2023-05-01T00:14:30.380Z,1005.53
2023-05-01T00:15:30.345Z,1005.51
2023-05-01T00:16:30.386Z,1005.50
2023-05-01T00:17:30.325Z,1005.49
2023-05-01T00:18:30.330Z,1005.49
2023-05-01T00:19:30.288Z,1005.48
2023-05-01T00:20:30.309Z,1005.47
2023-05-01T00:21:30.277Z,1005.46
2023-05-01T00:22:30.272Z,1005.44
2023-05-01T00:23:30.236Z,1005.41
2023-05-01T00:24:30.262Z,1005.41
2023-05-01T00:25:30.220Z,1005.39
2023-05-01T00:26:30.289Z,1005.38
2023-05-01T00:27:30.210Z,1005.37
2023-05-01T00:28:30.211Z,1005.36
2023-05-01T00:29:30.187Z,1005.36
2023-05-01T00:30:30.196Z,1005.36
2023-05-01T00:31:30.240Z,1005.36
2023-05-01T00:32:30.226Z,1005.35
2023-05-01T00:33:30.159Z,1005.34
2023-05-01T00:34:30.186Z,1005.33
2023-05-01T00:35:30.123Z,1005.33
2023-05-01T00:36:30.110Z,1005.33
2023-05-01T00:37:30.102Z,1005.32
2023-05-01T00:38:30.108Z,1005.32
2023-05-01T00:39:30.076Z,1005.31
2023-05-01T00:40:30.122Z,1005.31
2023-05-01T00:41:30.046Z,1005.30
2023-05-01T00:42:30.074Z,1005.29
2023-05-01T00:43:30.024Z,1005.28
2023-05-01T00:44:30.026Z,1005.28
2023-05-01T00:45:30.051Z,1005.29
2023-05-01T00:46:30.341Z,1005.29
2023-05-01T00:47:30.061Z,1005.28
2023-05-01T00:48:29.985Z,1005.28
2023-05-01T00:49:29.995Z,1005.27
2023-05-01T00:50:29.981Z,1005.27
2023-05-01T00:51:29.978Z,1005.24
2023-05-01T00:52:29.965Z,1005.23
2023-05-01T00:53:29.923Z,1005.23
2023-05-01T00:54:29.960Z,1005.21
2023-05-01T00:55:29.917Z,1005.21
2023-05-01T00:56:29.898Z,1005.20
2023-05-01T00:57:29.880Z,1005.17
2023-05-01T00:58:29.927Z,1005.17
2023-05-01T00:59:29.866Z,1005.14
2023-05-01T01:00:29.861Z,1005.13
2023-05-01T01:01:29.907Z,1005.12
2023-05-01T01:02:29.896Z,1005.09
2023-05-01T01:03:29.845Z,1005.08
2023-05-01T01:04:29.868Z,1005.06
2023-05-01T01:05:29.797Z,1005.05
2023-05-01T01:06:29.819Z,1005.04
2023-05-01T01:07:29.784Z,1005.03
2023-05-01T01:08:32.440Z,1005.02
2023-05-01T01:09:29.777Z,1005.02
2023-05-01T01:10:29.748Z,1005.01
2023-05-01T01:11:29.722Z,1005.00
2023-05-01T01:12:29.729Z,1004.99
2023-05-01T01:13:29.722Z,1004.99
2023-05-01T01:14:29.709Z,1004.98
2023-05-01T01:15:29.679Z,1004.97
2023-05-01T01:16:29.689Z,1004.96
2023-05-01T01:17:29.695Z,1004.93
2023-05-01T01:18:29.666Z,1004.92
2023-05-01T01:19:29.716Z,1004.91
2023-05-01T01:20:29.645Z,1004.90
2023-05-01T01:21:29.609Z,1004.88
2023-05-01T01:22:29.625Z,1004.88
2023-05-01T01:23:29.769Z,1004.86
2023-05-01T01:24:29.603Z,1004.87
2023-05-01T01:25:29.592Z,1004.85
2023-05-01T01:26:29.580Z,1004.85
2023-05-01T01:27:29.566Z,1004.85
2023-05-01T01:28:29.553Z,1004.84
2023-05-01T01:29:29.532Z,1004.85
2023-05-01T06:00:56.663Z,1003.97
2023-05-01T06:01:57.899Z,1003.97
2023-05-01T06:02:57.967Z,1003.98
2023-05-01T06:03:57.171Z,1003.96
2023-05-01T06:04:57.112Z,1003.95
2023-05-01T06:05:57.252Z,1003.95
2023-05-01T06:06:57.204Z,1003.95
2023-05-01T06:07:57.075Z,1003.94
2023-05-01T06:08:57.071Z,1003.93
2023-05-01T06:09:57.245Z,1003.93
2023-05-01T06:10:57.125Z,1003.93
2023-05-01T06:11:57.053Z,1003.94
2023-05-01T06:13:03.482Z,1003.94
2023-05-01T06:13:57.015Z,1003.94
2023-05-01T06:14:57.024Z,1003.95
2023-05-01T06:15:57.001Z,1003.94
2023-05-01T06:16:57.016Z,1003.93
2023-05-01T06:17:57.080Z,1003.92
2023-05-01T06:18:56.962Z,1003.90
2023-05-01T06:19:57.189Z,1003.89
2023-05-01T06:20:56.952Z,1003.87
2023-05-01T06:21:56.960Z,1003.86
2023-05-01T06:22:56.926Z,1003.85
2023-05-01T06:23:56.911Z,1003.84
2023-05-01T06:24:56.914Z,1003.83
2023-05-01T06:25:56.896Z,1003.82
2023-05-01T06:26:56.887Z,1003.81
2023-05-01T06:27:56.881Z,1003.81
2023-05-01T06:28:56.875Z,1003.79
2023-05-01T06:29:57.063Z,1003.79
2023-05-01T06:30:56.862Z,1003.79
2023-05-01T06:31:56.887Z,1003.78
2023-05-01T06:32:56.847Z,1003.78
2023-05-01T06:33:56.805Z,1003.78
2023-05-01T06:34:56.784Z,1003.76
2023-05-01T06:35:56.772Z,1003.75
2023-05-01T06:36:56.770Z,1003.75
2023-05-01T06:37:56.749Z,1003.76
2023-05-01T06:38:56.754Z,1003.76
2023-05-01T06:39:57.073Z,1003.75
2023-05-01T06:40:56.760Z,1003.75
2023-05-01T06:41:56.695Z,1003.76
2023-05-01T06:42:56.698Z,1003.76
2023-05-01T06:43:56.685Z,1003.77
2023-05-01T06:44:56.713Z,1003.77
2023-05-01T06:45:56.655Z,1003.76
2023-05-01T06:46:56.706Z,1003.76
2023-05-01T06:47:56.762Z,1003.75
2023-05-01T06:48:56.635Z,1003.74
2023-05-01T06:49:56.885Z,1003.75
2023-05-01T06:50:56.668Z,1003.75
2023-05-01T06:51:56.617Z,1003.76
2023-05-01T06:52:56.616Z,1003.76
2023-05-01T06:53:56.575Z,1003.77
2023-05-01T06:54:56.614Z,1003.76
2023-05-01T06:55:56.564Z,1003.77
2023-05-01T06:56:56.582Z,1003.74
2023-05-01T06:57:56.538Z,1003.74
2023-05-01T06:58:56.559Z,1003.73
2023-05-01T06:59:56.781Z,1003.73
2023-05-01T07:00:56.545Z,1003.74
2023-05-01T07:01:56.557Z,1003.72
2023-05-01T07:02:56.675Z,1003.72
2023-05-01T07:03:56.473Z,1003.70
2023-05-01T07:04:56.492Z,1003.70
2023-05-01T07:05:56.545Z,1003.70
2023-05-01T07:06:56.450Z,1003.69
2023-05-01T07:08:01.076Z,1003.68
2023-05-01T07:08:56.435Z,1003.66
2023-05-01T07:09:56.707Z,1003.65
2023-05-01T07:10:56.484Z,1003.64
2023-05-01T07:11:56.412Z,1003.62
2023-05-01T07:12:56.399Z,1003.61
2023-05-01T07:13:56.415Z,1003.61
2023-05-01T07:14:56.374Z,1003.62
2023-05-01T07:15:56.382Z,1003.62
2023-05-01T07:16:56.391Z,1003.62
2023-05-01T07:17:56.414Z,1003.62
2023-05-01T07:18:56.324Z,1003.61
2023-05-01T07:19:56.620Z,1003.60
2023-05-01T07:20:56.354Z,1003.59
2023-05-01T07:21:56.270Z,1003.59
2023-05-01T07:22:56.302Z,1003.58
2023-05-01T07:23:56.292Z,1003.58
2023-05-01T07:24:56.285Z,1003.58
2023-05-01T07:25:56.264Z,1003.58
2023-05-01T07:26:56.257Z,1003.58
2023-05-01T07:27:56.208Z,1003.57
2023-05-01T07:28:56.215Z,1003.57
2023-05-01T07:29:56.518Z,1003.55
2023-05-01T07:30:56.210Z,1003.53
2023-05-01T07:31:56.228Z,1003.52
2023-05-01T07:32:56.202Z,1003.52
2023-05-01T07:33:56.172Z,1003.52
2023-05-01T07:34:56.150Z,1003.54
2023-05-01T07:35:56.139Z,1003.54
2023-05-01T07:36:56.139Z,1003.54
2023-05-01T07:37:56.164Z,1003.54
2023-05-01T07:38:56.087Z,1003.54
2023-05-01T07:39:56.265Z,1003.55
2023-05-01T07:40:56.070Z,1003.56
2023-05-01T07:41:56.083Z,1003.55
2023-05-01T07:42:56.042Z,1003.54
2023-05-01T07:43:56.074Z,1003.54
2023-05-01T07:44:56.071Z,1003.53
2023-05-01T07:45:56.099Z,1003.52
2023-05-01T07:46:56.004Z,1003.52
2023-05-01T07:47:56.112Z,1003.52
2023-05-01T07:48:55.980Z,1003.51
2023-05-01T07:49:56.192Z,1003.51
2023-05-01T07:50:55.992Z,1003.51
2023-05-01T07:51:55.961Z,1003.51
2023-05-01T07:52:55.948Z,1003.51
2023-05-01T07:53:56.252Z,1003.51
2023-05-01T07:54:55.936Z,1003.50
2023-05-01T07:55:55.963Z,1003.50
2023-05-01T07:56:55.926Z,1003.51
2023-05-01T07:57:55.912Z,1003.51
2023-05-01T07:58:55.881Z,1003.51
2023-05-01T07:59:56.096Z,1003.52
2023-05-01T08:00:55.869Z,1003.51
2023-05-01T08:01:55.873Z,1003.51
2023-05-01T08:02:55.946Z,1003.50
2023-05-01T08:03:55.931Z,1003.51
2023-05-01T08:04:55.878Z,1003.51
2023-05-01T08:05:55.832Z,1003.52
2023-05-01T08:06:55.847Z,1003.51
2023-05-01T08:07:55.827Z,1003.49
2023-05-01T08:08:55.796Z,1003.50
2023-05-01T08:09:57.861Z,1003.49
2023-05-01T08:10:55.765Z,1003.48
2023-05-01T08:11:55.752Z,1003.47
2023-05-01T08:12:55.824Z,1003.46
2023-05-01T08:13:55.718Z,1003.46
2023-05-01T08:14:55.736Z,1003.47
2023-05-01T08:15:55.726Z,1003.47
2023-05-01T08:16:55.707Z,1003.49
2023-05-01T08:17:55.749Z,1003.48
2023-05-01T08:18:55.682Z,1003.48
2023-05-01T08:19:55.890Z,1003.48
2023-05-01T08:20:55.660Z,1003.47
2023-05-01T08:21:55.655Z,1003.47
2023-05-01T08:22:55.616Z,1003.47
2023-05-01T08:23:55.634Z,1003.46
2023-05-01T08:24:55.631Z,1003.47
2023-05-01T08:25:55.643Z,1003.47
2023-05-01T08:26:55.568Z,1003.46
2023-05-01T08:27:55.584Z,1003.46
2023-05-01T08:28:55.563Z,1003.45
2023-05-01T08:29:55.936Z,1003.44
2023-05-01T08:30:55.584Z,1003.42
2023-05-01T08:31:55.635Z,1003.42
2023-05-01T08:32:55.550Z,1003.42
2023-05-01T08:33:55.565Z,1003.41
2023-05-01T08:34:55.511Z,1003.41
2023-05-01T08:35:55.492Z,1003.40
2023-05-01T08:36:55.492Z,1003.40
2023-05-01T08:37:55.528Z,1003.39
2023-05-01T08:38:55.449Z,1003.37
2023-05-01T08:39:55.787Z,1003.36
2023-05-01T08:40:55.454Z,1003.36
2023-05-01T08:41:55.460Z,1003.35
2023-05-01T08:42:55.407Z,1003.35
2023-05-01T08:43:55.924Z,1003.34
2023-05-01T08:44:55.399Z,1003.34
2023-05-01T08:45:55.404Z,1003.33
2023-05-01T08:46:55.410Z,1003.32
2023-05-01T08:47:55.456Z,1003.31
2023-05-01T08:48:55.342Z,1003.33
2023-05-01T08:49:55.701Z,1003.32
2023-05-01T08:50:55.330Z,1003.30
2023-05-01T08:51:55.322Z,1003.32
2023-05-01T08:52:55.296Z,1003.30
2023-05-01T08:53:55.324Z,1003.31
2023-05-01T08:54:55.322Z,1003.31
2023-05-01T08:55:55.302Z,1003.32
2023-05-01T08:56:55.262Z,1003.32
2023-05-01T08:57:55.265Z,1003.31
2023-05-01T08:58:55.276Z,1003.30
2023-05-01T08:59:55.564Z,1003.29
2023-05-01T09:00:55.212Z,1003.29
2023-05-01T09:01:55.323Z,1003.29
2023-05-01T09:02:55.254Z,1003.30
2023-05-01T09:03:55.317Z,1003.30
2023-05-01T09:04:55.173Z,1003.32
2023-05-01T09:05:55.181Z,1003.33
2023-05-01T09:06:55.199Z,1003.32
2023-05-01T09:07:55.162Z,1003.31
2023-05-01T09:08:55.129Z,1003.31
2023-05-01T09:09:55.412Z,1003.29
2023-05-01T09:10:55.143Z,1003.29
2023-05-01T09:11:55.117Z,1003.28
2023-05-01T09:12:55.089Z,1003.27
2023-05-01T09:13:55.100Z,1003.27
2023-05-01T09:14:55.090Z,1003.26
2023-05-01T09:15:55.150Z,1003.26
2023-05-01T09:16:55.086Z,1003.25
2023-05-01T09:17:55.218Z,1003.24
2023-05-01T09:18:55.097Z,1003.22
2023-05-01T09:19:55.145Z,1003.23
2023-05-01T09:20:55.003Z,1003.22
2023-05-01T09:21:55.017Z,1003.23
2023-05-01T09:22:55.004Z,1003.22
2023-05-01T09:23:54.990Z,1003.21
2023-05-01T09:24:54.951Z,1003.20
2023-05-01T09:25:54.992Z,1003.20
2023-05-01T09:26:54.925Z,1003.18
2023-05-01T09:27:54.956Z,1003.17
2023-05-01T09:28:54.932Z,1003.17
2023-05-01T09:29:55.126Z,1003.17
2023-05-01T09:30:54.955Z,1003.16
2023-05-01T09:31:54.998Z,1003.16
2023-05-01T09:32:54.959Z,1003.16
2023-05-01T09:33:54.880Z,1003.16
2023-05-01T09:34:54.875Z,1003.16
2023-05-01T09:35:54.912Z,1003.18
2023-05-01T09:36:54.850Z,1003.17
2023-05-01T09:37:54.839Z,1003.16
2023-05-01T09:38:54.855Z,1003.17
2023-05-01T09:39:55.035Z,1003.15
2023-05-01T09:40:54.809Z,1003.13
2023-05-01T09:41:54.814Z,1003.11
2023-05-01T09:42:54.766Z,1003.10
2023-05-01T09:43:54.774Z,1003.09
2023-05-01T09:44:54.775Z,1003.11
2023-05-01T09:45:54.864Z,1003.10
2023-05-01T09:46:54.722Z,1003.09
2023-05-01T09:47:54.814Z,1003.08
2023-05-01T09:48:54.862Z,1003.06
2023-05-01T09:49:54.822Z,1003.03
2023-05-01T09:50:54.695Z,1003.01
2023-05-01T09:51:54.680Z,1002.99
2023-05-01T09:52:54.676Z,1002.98
2023-05-01T09:53:54.691Z,1002.96
2023-05-01T09:54:54.664Z,1002.95
2023-05-01T09:55:54.657Z,1002.94
2023-05-01T09:56:54.617Z,1002.93
2023-05-01T09:57:54.610Z,1002.94
2023-05-01T09:58:54.589Z,1002.93
2023-05-01T09:59:54.867Z,1002.94
2023-05-01T10:00:54.631Z,1002.94
2023-05-01T10:01:54.654Z,1002.96
2023-05-01T10:02:54.684Z,1002.97
2023-05-01T10:03:54.656Z,1002.99
2023-05-01T10:04:54.546Z,1002.98
2023-05-01T10:05:54.559Z,1002.97
2023-05-01T10:06:54.776Z,1002.97
2023-05-01T10:07:54.517Z,1002.95
2023-05-01T10:08:54.527Z,1002.95
2023-05-01T10:09:54.577Z,1002.94
2023-05-01T10:10:54.481Z,1002.94
2023-05-01T10:11:54.486Z,1002.94
2023-05-01T10:12:54.453Z,1002.93
2023-05-01T10:13:54.566Z,1002.92
2023-05-01T10:14:54.471Z,1002.92
2023-05-01T10:15:54.430Z,1002.90
2023-05-01T10:16:54.456Z,1002.90
2023-05-01T10:17:55.011Z,1002.89
2023-05-01T10:18:54.382Z,1002.89
2023-05-01T10:19:54.729Z,1002.88
2023-05-01T10:20:54.376Z,1002.87
2023-05-01T10:21:54.360Z,1002.87
2023-05-01T10:22:54.369Z,1002.86
2023-05-01T10:23:54.348Z,1002.87
2023-05-01T10:24:54.326Z,1002.86
2023-05-01T10:25:54.344Z,1002.87
2023-05-01T10:26:54.327Z,1002.86
2023-05-01T10:27:54.299Z,1002.86
2023-05-01T10:28:54.284Z,1002.85
2023-05-01T10:29:54.634Z,1002.84
2023-05-01T10:30:54.290Z,1002.84
2023-05-01T10:31:54.490Z,1002.84
2023-05-01T10:32:54.268Z,1002.83
2023-05-01T10:33:54.223Z,1002.83
2023-05-01T10:34:54.440Z,1002.83
2023-05-01T10:35:54.204Z,1002.83
2023-05-01T10:36:54.177Z,1002.83
2023-05-01T10:37:54.202Z,1002.84
2023-05-01T10:38:54.186Z,1002.85
2023-05-01T10:39:54.174Z,1002.86
2023-05-01T10:40:54.143Z,1002.87
2023-05-01T10:41:54.137Z,1002.87
2023-05-01T10:42:54.132Z,1002.86
2023-05-01T10:43:54.151Z,1002.85
2023-05-01T10:44:54.328Z,1002.84
2023-05-01T10:45:54.283Z,1002.81
2023-05-01T10:46:54.275Z,1002.79
2023-05-01T10:47:54.129Z,1002.76
2023-05-01T10:48:54.087Z,1002.75
2023-05-01T10:49:54.071Z,1002.73
2023-05-01T10:50:54.040Z,1002.74
2023-05-01T10:51:54.058Z,1002.73
2023-05-01T10:52:54.007Z,1002.74
2023-05-01T10:53:54.026Z,1002.70
2023-05-01T10:54:54.414Z,1002.71
2023-05-01T10:55:54.025Z,1002.72
2023-05-01T10:56:53.983Z,1002.71
2023-05-01T10:57:54.000Z,1002.69
2023-05-01T10:58:53.969Z,1002.68
2023-05-01T10:59:53.957Z,1002.67
2023-05-01T11:00:53.923Z,1002.65
2023-05-01T11:01:54.318Z,1002.63
2023-05-01T11:02:53.956Z,1002.61
2023-05-01T11:03:53.959Z,1002.61
2023-05-01T11:04:54.151Z,1002.60
2023-05-01T11:05:53.999Z,1002.60
2023-05-01T11:06:53.900Z,1002.61
2023-05-01T11:07:53.900Z,1002.58
2023-05-01T11:08:53.838Z,1002.59
2023-05-01T11:09:53.889Z,1002.57
2023-05-01T11:10:53.830Z,1002.57
2023-05-01T11:11:53.836Z,1002.55
2023-05-01T11:12:53.818Z,1002.55
2023-05-01T11:13:53.845Z,1002.55
2023-05-01T11:14:54.248Z,1002.56
2023-05-01T11:15:53.870Z,1002.54
2023-05-01T11:16:53.834Z,1002.52
2023-05-01T11:17:53.829Z,1002.52
2023-05-01T11:18:53.744Z,1002.53
2023-05-01T11:19:53.758Z,1002.54
2023-05-01T11:20:53.753Z,1002.51
2023-05-01T11:21:53.732Z,1002.50
2023-05-01T11:22:53.714Z,1002.55
2023-05-01T11:23:53.698Z,1002.53
2023-05-01T11:24:53.736Z,1002.57
2023-05-01T11:25:53.749Z,1002.54
2023-05-01T11:26:53.696Z,1002.55
2023-05-01T11:27:53.670Z,1002.52
2023-05-01T11:28:53.628Z,1002.52
2023-05-01T11:29:53.629Z,1002.50
2023-05-01T11:30:53.664Z,1002.50
2023-05-01T11:31:53.737Z,1002.50
2023-05-01T11:32:53.650Z,1002.50
2023-05-01T11:33:53.588Z,1002.48
2023-05-01T11:34:53.640Z,1002.44
2023-05-01T11:35:53.570Z,1002.46
2023-05-01T11:36:53.556Z,1002.43
2023-05-01T11:37:53.558Z,1002.42
2023-05-01T11:38:53.586Z,1002.41
2023-05-01T11:39:53.538Z,1002.42
2023-05-01T11:40:53.511Z,1002.38
2023-05-01T11:41:53.558Z,1002.36
2023-05-01T11:42:53.479Z,1002.32
2023-05-01T11:43:53.486Z,1002.31
2023-05-01T11:44:53.517Z,1002.28
2023-05-01T11:45:53.515Z,1002.28
2023-05-01T11:46:53.446Z,1002.27
2023-05-01T11:47:53.477Z,1002.26
2023-05-01T11:48:53.412Z,1002.29
2023-05-01T11:49:53.441Z,1002.26
2023-05-01T11:50:53.469Z,1002.25
2023-05-01T11:51:53.412Z,1002.24
2023-05-01T11:52:53.396Z,1002.27
2023-05-01T11:53:53.370Z,1002.25
2023-05-01T11:54:53.368Z,1002.21
2023-05-01T11:55:53.390Z,1002.20
2023-05-01T11:56:53.384Z,1002.22
2023-05-01T11:57:53.372Z,1002.20
2023-05-01T11:58:53.317Z,1002.17
2023-05-01T11:59:53.316Z,1002.17
2023-05-01T12:00:53.310Z,1002.16
2023-05-01T12:01:53.333Z,1002.16
2023-05-01T12:02:53.450Z,1002.14
2023-05-01T12:03:53.335Z,1002.17
2023-05-01T12:04:53.453Z,1002.19
2023-05-01T12:05:53.242Z,1002.15
2023-05-01T12:06:53.384Z,1002.17
2023-05-01T12:07:53.228Z,1002.17
2023-05-01T12:08:53.258Z,1002.19
2023-05-01T12:09:53.200Z,1002.17
2023-05-01T12:10:53.205Z,1002.15
2023-05-01T12:11:53.406Z,1002.12
2023-05-01T12:12:53.179Z,1002.15
2023-05-01T12:13:53.145Z,1002.14
2023-05-01T12:14:53.174Z,1002.17
2023-05-01T12:15:53.154Z,1002.16
2023-05-01T12:16:53.178Z,1002.17
2023-05-01T12:17:53.137Z,1002.17
2023-05-01T12:18:53.115Z,1002.21
2023-05-01T12:19:53.095Z,1002.16
2023-05-01T12:20:53.198Z,1002.15
2023-05-01T12:21:53.066Z,1002.13
2023-05-01T12:22:53.085Z,1002.13
2023-05-01T12:23:53.066Z,1002.11
2023-05-01T12:24:53.073Z,1002.08
2023-05-01T12:25:53.022Z,1002.08
2023-05-01T12:26:53.029Z,1002.10
2023-05-01T12:27:53.013Z,1002.10
2023-05-01T12:28:53.007Z,1002.12
2023-05-01T12:29:52.976Z,1002.10
2023-05-01T12:30:53.011Z,1002.08
2023-05-01T12:31:53.013Z,1002.08
2023-05-01T12:32:53.047Z,1002.08
2023-05-01T12:33:52.944Z,1002.06
2023-05-01T12:34:52.952Z,1002.03
2023-05-01T12:35:52.935Z,1002.07
2023-05-01T12:36:52.957Z,1002.03
2023-05-01T12:37:52.883Z,1002.01
2023-05-01T12:38:52.926Z,1002.02
2023-05-01T12:39:52.890Z,1002.01
2023-05-01T12:40:52.895Z,1002.01
2023-05-01T12:41:52.881Z,1002.00
2023-05-01T12:42:52.848Z,1002.01
2023-05-01T12:43:52.826Z,1001.99
2023-05-01T12:44:52.844Z,1002.02
2023-05-01T12:45:52.912Z,1002.03
2023-05-01T12:46:53.030Z,1002.02
2023-05-01T12:47:52.978Z,1001.96
2023-05-01T12:48:54.452Z,1001.99
2023-05-01T12:49:52.758Z,1002.01
2023-05-01T12:50:52.775Z,1001.99
2023-05-01T12:51:52.750Z,1001.94
2023-05-01T12:52:52.757Z,1001.94
2023-05-01T12:53:52.765Z,1001.93
2023-05-01T12:54:52.749Z,1001.92
2023-05-01T12:55:52.710Z,1001.89
2023-05-01T12:56:52.720Z,1001.88
2023-05-01T12:57:52.691Z,1001.89
2023-05-01T12:58:52.687Z,1001.89
2023-05-01T12:59:52.687Z,1001.90
2023-05-01T13:00:52.677Z,1001.91
2023-05-01T13:01:52.672Z,1001.92
2023-05-01T13:02:52.717Z,1001.92
2023-05-01T13:03:52.707Z,1001.94
2023-05-01T13:04:52.644Z,1001.92
2023-05-01T13:05:52.608Z,1001.93
2023-05-01T13:06:52.741Z,1001.94
2023-05-01T13:07:52.643Z,1001.97
2023-05-01T13:08:52.582Z,1001.92
2023-05-01T13:09:52.552Z,1001.87
2023-05-01T13:10:53.222Z,1001.94
2023-05-01T13:11:52.540Z,1001.92
2023-05-01T13:12:52.540Z,1001.92
2023-05-01T13:13:52.543Z,1001.89
2023-05-01T13:14:52.516Z,1001.87
2023-05-01T13:15:52.541Z,1001.85
2023-05-01T13:16:52.993Z,1001.85
2023-05-01T13:17:52.515Z,1001.85
2023-05-01T13:18:52.495Z,1001.87
2023-05-01T13:19:52.460Z,1001.83
2023-05-01T13:20:52.468Z,1001.82
2023-05-01T13:21:52.442Z,1001.82
2023-05-01T13:22:52.447Z,1001.81
2023-05-01T13:23:52.419Z,1001.77
2023-05-01T13:24:52.433Z,1001.77
2023-05-01T13:25:52.384Z,1001.79
2023-05-01T13:26:52.397Z,1001.79
2023-05-01T13:27:52.386Z,1001.79
2023-05-01T13:28:52.412Z,1001.79
2023-05-01T13:29:52.367Z,1001.77
2023-05-01T13:30:52.344Z,1001.77
2023-05-01T13:31:52.359Z,1001.76
2023-05-01T13:32:52.356Z,1001.78
2023-05-01T13:33:52.298Z,1001.80
2023-05-01T13:34:52.305Z,1001.80
2023-05-01T13:35:52.293Z,1001.81
2023-05-01T13:36:52.288Z,1001.83
2023-05-01T13:37:52.281Z,1001.84
2023-05-01T13:38:52.267Z,1001.83
2023-05-01T13:39:52.230Z,1001.83
2023-05-01T13:40:52.259Z,1001.81
2023-05-01T13:41:52.253Z,1001.81
2023-05-01T13:42:52.232Z,1001.81
2023-05-01T13:43:52.185Z,1001.82
2023-05-01T13:44:52.197Z,1001.79
2023-05-01T13:45:52.252Z,1001.80
2023-05-01T13:46:52.189Z,1001.82
2023-05-01T13:47:52.259Z,1001.82
2023-05-01T13:48:52.176Z,1001.84
2023-05-01T13:49:52.124Z,1001.85
2023-05-01T13:50:52.142Z,1001.86
2023-05-01T13:51:52.110Z,1001.86
2023-05-01T13:52:52.104Z,1001.87
2023-05-01T13:53:52.137Z,1001.85
2023-05-01T13:54:52.088Z,1001.84
2023-05-01T13:55:52.077Z,1001.85
2023-05-01T13:56:52.073Z,1001.84
2023-05-01T13:57:52.076Z,1001.83
2023-05-01T13:58:52.050Z,1001.82
2023-05-01T13:59:52.056Z,1001.81
2023-05-01T14:00:52.102Z,1001.81
2023-05-01T14:01:52.178Z,1001.81
2023-05-01T14:02:52.095Z,1001.80
2023-05-01T14:03:52.099Z,1001.78
2023-05-01T14:04:52.031Z,1001.76
2023-05-01T14:05:51.952Z,1001.77
2023-05-01T14:06:52.148Z,1001.76
2023-05-01T14:07:51.938Z,1001.76
2023-05-01T14:08:51.969Z,1001.77
2023-05-01T14:09:51.947Z,1001.76
2023-05-01T14:10:51.948Z,1001.77
2023-05-01T14:11:51.901Z,1001.78
2023-05-01T14:12:51.895Z,1001.79
2023-05-01T14:13:51.888Z,1001.77
2023-05-01T14:14:51.872Z,1001.77
2023-05-01T14:15:51.862Z,1001.76
2023-05-01T14:16:52.017Z,1001.76
2023-05-01T14:17:51.872Z,1001.74
2023-05-01T14:18:51.840Z,1001.72
2023-05-01T14:19:51.808Z,1001.70
2023-05-01T14:20:51.821Z,1001.72
2023-05-01T14:21:51.821Z,1001.74
2023-05-01T14:22:51.826Z,1001.74
2023-05-01T14:23:51.788Z,1001.76
2023-05-01T14:24:51.758Z,1001.77
2023-05-01T14:25:51.753Z,1001.76
2023-05-01T14:26:51.748Z,1001.73
2023-05-01T14:27:51.745Z,1001.71
2023-05-01T14:28:51.734Z,1001.73
2023-05-01T14:29:51.715Z,1001.74
2023-05-01T14:30:51.723Z,1001.72
2023-05-01T14:31:51.672Z,1001.72
2023-05-01T14:32:51.741Z,1001.71
2023-05-01T14:33:51.671Z,1001.72
2023-05-01T14:34:51.728Z,1001.71
2023-05-01T14:35:51.624Z,1001.69
2023-05-01T14:36:51.651Z,1001.69
2023-05-01T14:37:51.606Z,1001.69
2023-05-01T14:38:51.650Z,1001.70
2023-05-01T14:39:51.624Z,1001.72
2023-05-01T14:40:51.590Z,1001.71
2023-05-01T14:41:51.586Z,1001.73
2023-05-01T14:42:51.593Z,1001.77
2023-05-01T14:43:51.550Z,1001.78
2023-05-01T14:44:51.560Z,1001.78
2023-05-01T14:45:51.624Z,1001.77
2023-05-01T14:46:52.035Z,1001.78
2023-05-01T14:47:51.560Z,1001.78
2023-05-01T14:48:51.530Z,1001.77
2023-05-01T14:49:51.524Z,1001.77
2023-05-01T14:50:51.498Z,1001.77
2023-05-01T14:51:51.492Z,1001.76
2023-05-01T14:52:51.483Z,1001.76
2023-05-01T14:53:51.463Z,1001.75
2023-05-01T14:54:51.442Z,1001.76
2023-05-01T14:55:51.438Z,1001.77
2023-05-01T14:56:51.464Z,1001.76
2023-05-01T14:57:51.420Z,1001.76
2023-05-01T14:58:51.426Z,1001.77
2023-05-01T14:59:51.390Z,1001.78
2023-05-01T15:00:51.389Z,1001.79
2023-05-01T15:01:51.503Z,1001.79
2023-05-01T15:02:51.556Z,1001.78
2023-05-01T15:03:51.446Z,1001.78
2023-05-01T15:04:51.356Z,1001.79
2023-05-01T15:05:51.332Z,1001.80
2023-05-01T15:06:51.463Z,1001.81
2023-05-01T15:07:51.321Z,1001.81
2023-05-01T15:08:51.330Z,1001.80
2023-05-01T15:09:51.278Z,1001.80
2023-05-01T15:10:51.289Z,1001.80
2023-05-01T15:11:51.299Z,1001.80
2023-05-01T15:12:51.277Z,1001.81
2023-05-01T15:13:51.242Z,1001.80
2023-05-01T15:14:51.258Z,1001.80
2023-05-01T15:15:51.249Z,1001.80
2023-05-01T15:16:51.317Z,1001.77
2023-05-01T15:17:51.235Z,1001.77
2023-05-01T15:18:51.213Z,1001.77
2023-05-01T15:19:51.229Z,1001.76
2023-05-01T15:20:51.213Z,1001.79
2023-05-01T15:21:51.168Z,1001.78
2023-05-01T15:22:51.170Z,1001.77
2023-05-01T15:23:51.136Z,1001.78
2023-05-01T15:24:51.155Z,1001.79
2023-05-01T15:25:51.150Z,1001.78
2023-05-01T15:26:51.113Z,1001.79
2023-05-01T15:27:51.100Z,1001.79
2023-05-01T15:28:51.109Z,1001.79
2023-05-01T15:29:51.069Z,1001.78
2023-05-01T15:30:51.115Z,1001.78
2023-05-01T15:32:01.232Z,1001.79
2023-05-01T15:32:51.115Z,1001.79
2023-05-01T15:33:51.028Z,1001.77
2023-05-01T15:34:51.033Z,1001.77
2023-05-01T15:35:51.106Z,1001.77
2023-05-01T15:36:51.033Z,1001.77
2023-05-01T15:37:50.990Z,1001.78
2023-05-01T15:38:50.991Z,1001.78
2023-05-01T15:39:50.964Z,1001.79
2023-05-01T15:40:50.966Z,1001.79
2023-05-01T15:41:50.982Z,1001.81
2023-05-01T15:42:50.951Z,1001.82
2023-05-01T15:43:50.956Z,1001.83
2023-05-01T15:44:50.935Z,1001.84
2023-05-01T15:45:51.076Z,1001.84
2023-05-01T15:46:51.036Z,1001.82
2023-05-01T15:47:50.984Z,1001.83
2023-05-01T15:48:50.903Z,1001.83
2023-05-01T15:49:50.882Z,1001.83
2023-05-01T15:50:50.888Z,1001.82
2023-05-01T15:51:50.846Z,1001.83
2023-05-01T15:52:50.851Z,1001.82
2023-05-01T15:53:50.832Z,1001.82
2023-05-01T15:54:50.864Z,1001.82
2023-05-01T15:55:50.798Z,1001.82
2023-05-01T15:56:50.798Z,1001.82
2023-05-01T15:57:50.780Z,1001.83
2023-05-01T15:58:50.777Z,1001.81
2023-05-01T15:59:50.757Z,1001.80
2023-05-01T16:00:50.864Z,1001.80
2023-05-01T16:01:50.846Z,1001.81
2023-05-01T16:02:50.867Z,1001.79
2023-05-01T16:03:50.817Z,1001.80
2023-05-01T16:04:50.719Z,1001.79
2023-05-01T16:05:50.677Z,1001.79
2023-05-01T16:06:50.773Z,1001.80
2023-05-01T16:07:50.673Z,1001.81
2023-05-01T16:08:50.668Z,1001.80
2023-05-01T16:09:50.656Z,1001.80
2023-05-01T16:10:50.619Z,1001.80
2023-05-01T16:11:50.656Z,1001.80
2023-05-01T16:12:50.727Z,1001.79
2023-05-01T16:13:50.627Z,1001.80
2023-05-01T16:14:50.625Z,1001.79
2023-05-01T16:15:50.612Z,1001.79
2023-05-01T16:16:50.601Z,1001.80
2023-05-01T16:17:50.643Z,1001.80
2023-05-01T16:18:50.582Z,1001.80
2023-05-01T16:19:50.568Z,1001.81
2023-05-01T16:20:50.519Z,1001.81
2023-05-01T16:21:50.578Z,1001.82
2023-05-01T16:22:50.512Z,1001.81
2023-05-01T16:23:50.541Z,1001.80
2023-05-01T16:24:50.518Z,1001.80
2023-05-01T16:25:50.508Z,1001.82
2023-05-01T16:26:50.458Z,1001.82
2023-05-01T16:27:50.462Z,1001.82
2023-05-01T16:28:50.453Z,1001.82
2023-05-01T16:29:50.509Z,1001.83
2023-05-01T16:30:50.431Z,1001.85
2023-05-01T16:31:50.463Z,1001.84
2023-05-01T16:32:50.523Z,1001.85
2023-05-01T16:33:50.399Z,1001.87
2023-05-01T16:34:50.370Z,1001.88
2023-05-01T16:35:50.405Z,1001.90